sensor_id;sensor_type;location;lat;lon;timestamp;P1;durP1;ratioP1;P2;durP2;ratioP2
14153;SDS011;7157;53.144;7.570;2022-09-09T00:08:18;16.10;;;6.95;;
14153;SDS011;7157;53.144;7.570;2022-09-09T00:18:26;18.88;;;7.65;;
14153;SDS011;7157;53.144;7.570;2022-09-09T00:28:36;13.07;;;7.00;;
14153;SDS011;7157;53.144;7.570;2022-09-09T00:38:46;12.55;;;7.30;;
14153;SDS011;7157;53.144;7.570;2022-09-09T00:48:54;16.00;;;7.75;;
14153;SDS011;7157;53.144;7.570;2022-09-09T00:59:07;14.48;;;6.95;;
14153;SDS011;7157;53.144;7.570;2022-09-09T01:09:21;13.32;;;6.93;;
14153;SDS011;7157;53.144;7.570;2022-09-09T01:19:33;15.60;;;7.00;;
14153;SDS011;7157;53.144;7.570;2022-09-09T01:29:48;14.38;;;6.90;;
14153;SDS011;7157;53.144;7.570;2022-09-09T01:39:51;10.10;;;5.82;;
14153;SDS011;7157;53.144;7.570;2022-09-09T01:49:55;13.50;;;6.15;;
14153;SDS011;7157;53.144;7.570;2022-09-09T02:00:01;15.52;;;6.38;;
14153;SDS011;7157;53.144;7.570;2022-09-09T02:10:11;14.18;;;5.93;;
14153;SDS011;7157;53.144;7.570;2022-09-09T02:20:18;10.40;;;6.45;;
14153;SDS011;7157;53.144;7.570;2022-09-09T02:30:23;11.48;;;5.78;;
14153;SDS011;7157;53.144;7.570;2022-09-09T02:40:27;13.70;;;5.82;;
14153;SDS011;7157;53.144;7.570;2022-09-09T02:50:32;10.52;;;5.75;;
14153;SDS011;7157;53.144;7.570;2022-09-09T03:00:36;10.68;;;5.70;;
14153;SDS011;7157;53.144;7.570;2022-09-09T03:10:41;11.23;;;5.65;;
14153;SDS011;7157;53.144;7.570;2022-09-09T03:20:45;11.63;;;4.78;;
14153;SDS011;7157;53.144;7.570;2022-09-09T03:30:50;10.57;;;4.28;;
14153;SDS011;7157;53.144;7.570;2022-09-09T03:40:54;10.95;;;4.22;;
14153;SDS011;7157;53.144;7.570;2022-09-09T03:50:59;7.95;;;4.18;;
14153;SDS011;7157;53.144;7.570;2022-09-09T04:01:04;11.63;;;4.32;;
14153;SDS011;7157;53.144;7.570;2022-09-09T04:11:11;10.07;;;3.90;;
14153;SDS011;7157;53.144;7.570;2022-09-09T04:21:14;9.70;;;4.25;;
14153;SDS011;7157;53.144;7.570;2022-09-09T04:31:19;10.02;;;4.43;;
14153;SDS011;7157;53.144;7.570;2022-09-09T04:41:24;10.82;;;5.22;;
14153;SDS011;7157;53.144;7.570;2022-09-09T04:51:28;15.70;;;4.70;;
14153;SDS011;7157;53.144;7.570;2022-09-09T05:01:32;8.13;;;4.28;;
14153;SDS011;7157;53.144;7.570;2022-09-09T05:11:36;6.97;;;3.80;;
14153;SDS011;7157;53.144;7.570;2022-09-09T05:21:39;6.32;;;3.75;;
14153;SDS011;7157;53.144;7.570;2022-09-09T05:31:44;4.80;;;2.72;;
14153;SDS011;7157;53.144;7.570;2022-09-09T05:41:46;7.57;;;3.00;;
14153;SDS011;7157;53.144;7.570;2022-09-09T05:51:50;8.35;;;2.95;;
14153;SDS011;7157;53.144;7.570;2022-09-09T06:01:54;5.45;;;2.90;;
14153;SDS011;7157;53.144;7.570;2022-09-09T06:11:58;8.48;;;3.03;;
14153;SDS011;7157;53.144;7.570;2022-09-09T06:22:00;4.70;;;2.50;;
14153;SDS011;7157;53.144;7.570;2022-09-09T06:32:05;4.25;;;2.50;;
14153;SDS011;7157;53.144;7.570;2022-09-09T06:42:09;7.22;;;2.97;;
14153;SDS011;7157;53.144;7.570;2022-09-09T06:52:13;10.10;;;2.95;;
14153;SDS011;7157;53.144;7.570;2022-09-09T07:02:16;7.60;;;3.50;;
14153;SDS011;7157;53.144;7.570;2022-09-09T07:12:20;6.43;;;3.10;;
14153;SDS011;7157;53.144;7.570;2022-09-09T07:22:23;10.48;;;4.28;;
14153;SDS011;7157;53.144;7.570;2022-09-09T07:32:27;5.63;;;3.47;;
14153;SDS011;7157;53.144;7.570;2022-09-09T07:42:31;9.55;;;4.95;;
14153;SDS011;7157;53.144;7.570;2022-09-09T07:52:38;6.88;;;3.45;;
14153;SDS011;7157;53.144;7.570;2022-09-09T08:02:41;7.15;;;3.20;;
14153;SDS011;7157;53.144;7.570;2022-09-09T08:12:45;5.65;;;3.30;;
14153;SDS011;7157;53.144;7.570;2022-09-09T08:23:08;5.28;;;2.95;;
14153;SDS011;7157;53.144;7.570;2022-09-09T08:33:12;6.15;;;1.92;;
14153;SDS011;7157;53.144;7.570;2022-09-09T08:43:15;8.45;;;2.30;;
14153;SDS011;7157;53.144;7.570;2022-09-09T08:53:23;5.60;;;2.00;;
14153;SDS011;7157;53.144;7.570;2022-09-09T09:03:34;5.32;;;1.70;;
14153;SDS011;7157;53.144;7.570;2022-09-09T09:13:44;6.07;;;1.90;;
14153;SDS011;7157;53.144;7.570;2022-09-09T09:23:53;9.20;;;2.20;;
14153;SDS011;7157;53.144;7.570;2022-09-09T09:34:00;6.28;;;3.30;;
14153;SDS011;7157;53.144;7.570;2022-09-09T09:44:03;8.13;;;4.05;;
14153;SDS011;7157;53.144;7.570;2022-09-09T09:54:13;15.68;;;4.90;;
14153;SDS011;7157;53.144;7.570;2022-09-09T10:04:20;6.50;;;4.07;;
14153;SDS011;7157;53.144;7.570;2022-09-09T10:14:27;10.07;;;4.28;;
14153;SDS011;7157;53.144;7.570;2022-09-09T10:24:43;5.80;;;3.00;;
14153;SDS011;7157;53.144;7.570;2022-09-09T10:35:04;5.78;;;3.10;;
14153;SDS011;7157;53.144;7.570;2022-09-09T10:45:15;8.60;;;3.65;;
14153;SDS011;7157;53.144;7.570;2022-09-09T10:55:23;8.30;;;3.92;;
14153;SDS011;7157;53.144;7.570;2022-09-09T11:05:31;6.00;;;1.85;;
14153;SDS011;7157;53.144;7.570;2022-09-09T11:15:44;7.45;;;1.50;;
14153;SDS011;7157;53.144;7.570;2022-09-09T11:25:53;6.00;;;1.60;;
14153;SDS011;7157;53.144;7.570;2022-09-09T11:36:11;8.05;;;2.15;;
14153;SDS011;7157;53.144;7.570;2022-09-09T11:46:31;8.05;;;2.38;;
14153;SDS011;7157;53.144;7.570;2022-09-09T11:56:43;11.60;;;2.20;;
14153;SDS011;7157;53.144;7.570;2022-09-09T12:06:48;7.68;;;1.38;;
14153;SDS011;7157;53.144;7.570;2022-09-09T12:16:56;8.45;;;1.60;;
14153;SDS011;7157;53.144;7.570;2022-09-09T12:27:00;5.90;;;1.42;;
14153;SDS011;7157;53.144;7.570;2022-09-09T12:37:15;6.00;;;1.48;;
14153;SDS011;7157;53.144;7.570;2022-09-09T12:47:25;7.55;;;2.38;;
14153;SDS011;7157;53.144;7.570;2022-09-09T12:57:38;4.70;;;2.17;;
14153;SDS011;7157;53.144;7.570;2022-09-09T13:07:41;5.07;;;2.22;;
14153;SDS011;7157;53.144;7.570;2022-09-09T13:17:49;5.47;;;2.20;;
14153;SDS011;7157;53.144;7.570;2022-09-09T13:27:56;7.18;;;2.88;;
14153;SDS011;7157;53.144;7.570;2022-09-09T13:38:09;5.45;;;3.15;;
14153;SDS011;7157;53.144;7.570;2022-09-09T13:48:17;6.43;;;3.25;;
14153;SDS011;7157;53.144;7.570;2022-09-09T13:58:22;6.95;;;2.80;;
14153;SDS011;7157;53.144;7.570;2022-09-09T14:08:26;12.52;;;2.42;;
14153;SDS011;7157;53.144;7.570;2022-09-09T14:18:35;7.07;;;2.03;;
14153;SDS011;7157;53.144;7.570;2022-09-09T14:28:39;5.93;;;2.08;;
14153;SDS011;7157;53.144;7.570;2022-09-09T14:38:57;5.20;;;2.10;;
14153;SDS011;7157;53.144;7.570;2022-09-09T14:48:59;8.60;;;2.05;;
14153;SDS011;7157;53.144;7.570;2022-09-09T14:59:03;5.22;;;1.85;;
14153;SDS011;7157;53.144;7.570;2022-09-09T15:09:06;5.82;;;1.80;;
14153;SDS011;7157;53.144;7.570;2022-09-09T15:19:10;7.10;;;1.40;;
14153;SDS011;7157;53.144;7.570;2022-09-09T15:29:13;3.72;;;1.25;;
14153;SDS011;7157;53.144;7.570;2022-09-09T15:39:17;2.63;;;1.20;;
14153;SDS011;7157;53.144;7.570;2022-09-09T15:49:21;5.63;;;1.30;;
14153;SDS011;7157;53.144;7.570;2022-09-09T15:59:28;5.68;;;1.10;;
14153;SDS011;7157;53.144;7.570;2022-09-09T16:09:32;4.22;;;1.17;;
14153;SDS011;7157;53.144;7.570;2022-09-09T16:19:37;1.80;;;0.70;;
14153;SDS011;7157;53.144;7.570;2022-09-09T16:29:40;3.30;;;0.68;;
14153;SDS011;7157;53.144;7.570;2022-09-09T16:39:44;0.80;;;0.40;;
14153;SDS011;7157;53.144;7.570;2022-09-09T16:49:47;1.45;;;0.43;;
14153;SDS011;7157;53.144;7.570;2022-09-09T16:59:51;2.03;;;0.45;;
14153;SDS011;7157;53.144;7.570;2022-09-09T17:09:55;4.50;;;0.70;;
14153;SDS011;7157;53.144;7.570;2022-09-09T17:19:59;2.08;;;0.60;;
14153;SDS011;7157;53.144;7.570;2022-09-09T17:30:03;2.97;;;1.15;;
14153;SDS011;7157;53.144;7.570;2022-09-09T17:40:08;7.05;;;1.13;;
14153;SDS011;7157;53.144;7.570;2022-09-09T17:50:11;2.90;;;1.15;;
14153;SDS011;7157;53.144;7.570;2022-09-09T18:00:16;3.00;;;1.20;;
14153;SDS011;7157;53.144;7.570;2022-09-09T18:10:19;4.28;;;1.77;;
14153;SDS011;7157;53.144;7.570;2022-09-09T18:20:24;6.07;;;1.63;;
14153;SDS011;7157;53.144;7.570;2022-09-09T18:30:26;3.35;;;1.50;;
14153;SDS011;7157;53.144;7.570;2022-09-09T18:40:32;3.03;;;1.42;;
14153;SDS011;7157;53.144;7.570;2022-09-09T18:50:35;3.75;;;1.35;;
14153;SDS011;7157;53.144;7.570;2022-09-09T19:00:39;5.85;;;1.40;;
14153;SDS011;7157;53.144;7.570;2022-09-09T19:10:42;5.15;;;1.98;;
14153;SDS011;7157;53.144;7.570;2022-09-09T19:20:46;7.20;;;2.15;;
14153;SDS011;7157;53.144;7.570;2022-09-09T19:30:49;3.80;;;1.80;;
14153;SDS011;7157;53.144;7.570;2022-09-09T19:40:53;5.72;;;1.73;;
14153;SDS011;7157;53.144;7.570;2022-09-09T19:50:59;6.30;;;2.10;;
14153;SDS011;7157;53.144;7.570;2022-09-09T20:01:06;7.50;;;2.30;;
14153;SDS011;7157;53.144;7.570;2022-09-09T20:11:11;5.50;;;2.35;;
14153;SDS011;7157;53.144;7.570;2022-09-09T20:21:16;4.95;;;3.10;;
14153;SDS011;7157;53.144;7.570;2022-09-09T20:31:21;7.50;;;3.05;;
14153;SDS011;7157;53.144;7.570;2022-09-09T20:41:27;5.30;;;2.95;;
14153;SDS011;7157;53.144;7.570;2022-09-09T20:51:32;10.88;;;3.63;;
14153;SDS011;7157;53.144;7.570;2022-09-09T21:01:37;5.38;;;3.25;;
14153;SDS011;7157;53.144;7.570;2022-09-09T21:11:40;7.72;;;3.70;;
14153;SDS011;7157;53.144;7.570;2022-09-09T21:21:44;7.22;;;4.00;;
14153;SDS011;7157;53.144;7.570;2022-09-09T21:31:48;7.60;;;3.78;;
14153;SDS011;7157;53.144;7.570;2022-09-09T21:41:52;11.13;;;3.78;;
14153;SDS011;7157;53.144;7.570;2022-09-09T21:51:55;6.72;;;3.63;;
14153;SDS011;7157;53.144;7.570;2022-09-09T22:01:59;7.47;;;3.35;;
14153;SDS011;7157;53.144;7.570;2022-09-09T22:12:02;8.43;;;3.10;;
14153;SDS011;7157;53.144;7.570;2022-09-09T22:22:07;7.15;;;3.30;;
14153;SDS011;7157;53.144;7.570;2022-09-09T22:32:09;5.47;;;3.33;;
14153;SDS011;7157;53.144;7.570;2022-09-09T22:42:13;5.90;;;3.30;;
14153;SDS011;7157;53.144;7.570;2022-09-09T22:52:16;8.02;;;3.47;;
14153;SDS011;7157;53.144;7.570;2022-09-09T23:02:20;5.93;;;2.92;;
14153;SDS011;7157;53.144;7.570;2022-09-09T23:12:23;5.35;;;3.45;;
14153;SDS011;7157;53.144;7.570;2022-09-09T23:22:27;7.90;;;3.67;;
14153;SDS011;7157;53.144;7.570;2022-09-09T23:32:31;6.65;;;3.88;;
14153;SDS011;7157;53.144;7.570;2022-09-09T23:42:35;7.88;;;4.03;;
14153;SDS011;7157;53.144;7.570;2022-09-09T23:52:37;8.48;;;4.30;;
